createdAt,value
2018-08-18T00:00:50.999Z,1014.93
2018-08-18T00:01:51.053Z,1014.92
2018-08-18T00:02:50.979Z,1014.92
2018-08-18T00:03:51.043Z,1014.90
2018-08-18T00:04:51.038Z,1014.92
2018-08-18T00:05:51.023Z,1014.91
2018-08-18T00:06:51.053Z,1014.85
2018-08-18T00:07:51.108Z,1014.87
2018-08-18T00:08:51.069Z,1014.87
2018-08-18T00:09:51.093Z,1014.84
2018-08-18T00:10:51.113Z,1014.90
2018-08-18T00:11:51.117Z,1014.91
2018-08-18T00:12:51.192Z,1014.98
2018-08-18T00:13:51.149Z,1014.96
2018-08-18T00:14:51.142Z,1014.99
2018-08-18T00:15:51.157Z,1015.03
2018-08-18T00:16:51.162Z,1014.97
2018-08-18T00:17:51.165Z,1015.06
2018-08-18T00:18:51.231Z,1015.04
2018-08-18T00:19:51.226Z,1015.05
2018-08-18T00:20:51.208Z,1015.01
2018-08-18T00:21:51.245Z,1014.99
2018-08-18T00:22:51.242Z,1015.03
2018-08-18T00:23:51.295Z,1015.07
2018-08-18T00:24:51.312Z,1015.06
2018-08-18T00:25:51.297Z,1015.07
2018-08-18T00:26:51.299Z,1015.14
2018-08-18T00:27:51.286Z,1015.13
2018-08-18T00:28:51.307Z,1015.16
2018-08-18T00:29:51.367Z,1015.13
2018-08-18T00:30:51.359Z,1015.11
2018-08-18T00:31:51.352Z,1015.16
2018-08-18T00:32:51.382Z,1015.16
2018-08-18T00:33:51.390Z,1015.18
2018-08-18T00:34:51.441Z,1015.20
2018-08-18T00:35:51.406Z,1015.19
2018-08-18T00:36:51.395Z,1015.25
2018-08-18T00:37:51.422Z,1015.26
2018-08-18T00:38:51.435Z,1015.29
2018-08-18T00:39:51.472Z,1015.34
2018-08-18T00:40:51.465Z,1015.35
2018-08-18T00:41:51.469Z,1015.36
2018-08-18T00:42:51.477Z,1015.35
2018-08-18T00:43:51.511Z,1015.38
2018-08-18T00:44:51.559Z,1015.40
2018-08-18T00:45:51.512Z,1015.39
2018-08-18T00:46:51.586Z,1015.45
2018-08-18T00:47:51.580Z,1015.46
2018-08-18T00:48:51.538Z,1015.44
2018-08-18T00:49:51.568Z,1015.41
2018-08-18T00:50:51.596Z,1015.43
2018-08-18T00:51:51.607Z,1015.42
2018-08-18T00:52:51.589Z,1015.44
2018-08-18T00:53:51.625Z,1015.44
2018-08-18T00:54:51.630Z,1015.44
2018-08-18T00:55:51.646Z,1015.43
2018-08-18T00:56:51.681Z,1015.45
2018-08-18T00:57:51.657Z,1015.43
2018-08-18T00:58:51.672Z,1015.41
2018-08-18T00:59:51.684Z,1015.41
2018-08-18T01:00:51.725Z,1015.41
2018-08-18T01:01:51.747Z,1015.48
2018-08-18T01:02:51.790Z,1015.44
2018-08-18T01:03:51.749Z,1015.45
2018-08-18T01:04:51.744Z,1015.50
2018-08-18T01:05:51.763Z,1015.51
2018-08-18T01:06:51.774Z,1015.49
2018-08-18T01:07:51.835Z,1015.46
2018-08-18T01:08:51.799Z,1015.49
2018-08-18T01:09:51.827Z,1015.44
2018-08-18T01:10:51.849Z,1015.46
2018-08-18T01:11:51.980Z,1015.47
2018-08-18T01:12:51.870Z,1015.50
2018-08-18T01:13:51.884Z,1015.45
2018-08-18T01:14:52.032Z,1015.43
2018-08-18T01:15:51.884Z,1015.43
2018-08-18T01:16:51.903Z,1015.40
2018-08-18T01:17:52.057Z,1015.45
2018-08-18T01:18:51.951Z,1015.51
2018-08-18T01:19:51.918Z,1015.50
2018-08-18T01:20:51.963Z,1015.51
2018-08-18T01:21:51.971Z,1015.54
2018-08-18T01:22:52.012Z,1015.57
2018-08-18T01:23:52.006Z,1015.59
2018-08-18T01:24:52.008Z,1015.60
2018-08-18T01:25:52.001Z,1015.65
2018-08-18T01:26:52.028Z,1015.64
2018-08-18T01:27:52.050Z,1015.65
2018-08-18T01:28:52.057Z,1015.72
2018-08-18T01:29:52.063Z,1015.72
2018-08-18T01:30:52.134Z,1015.71
2018-08-18T01:31:52.075Z,1015.74
2018-08-18T01:32:52.083Z,1015.75
2018-08-18T01:33:52.107Z,1015.77
2018-08-18T01:34:52.148Z,1015.81
2018-08-18T01:35:52.127Z,1015.81
2018-08-18T01:36:52.148Z,1015.82
2018-08-18T01:37:52.168Z,1015.85
2018-08-18T01:38:52.200Z,1015.88
2018-08-18T01:39:52.204Z,1015.85
2018-08-18T01:40:52.204Z,1015.88
2018-08-18T01:41:52.242Z,1015.89
2018-08-18T01:42:52.230Z,1015.87
2018-08-18T01:43:52.256Z,1015.82
2018-08-18T01:44:52.253Z,1015.83
2018-08-18T01:45:52.263Z,1015.89
2018-08-18T01:46:52.301Z,1015.84
2018-08-18T01:47:52.261Z,1015.83
2018-08-18T01:48:52.309Z,1015.79
2018-08-18T01:49:52.328Z,1015.74
2018-08-18T01:50:52.324Z,1015.75
2018-08-18T01:51:52.389Z,1015.76
2018-08-18T01:52:52.339Z,1015.76
2018-08-18T01:53:52.354Z,1015.75
2018-08-18T01:54:52.397Z,1015.72
2018-08-18T01:55:52.382Z,1015.71
2018-08-18T01:56:52.454Z,1015.67
2018-08-18T01:57:52.414Z,1015.69
2018-08-18T01:58:52.414Z,1015.69
2018-08-18T01:59:52.432Z,1015.67
2018-08-18T02:00:52.441Z,1015.67
2018-08-18T02:01:52.487Z,1015.65
2018-08-18T02:02:52.503Z,1015.68
2018-08-18T02:03:52.481Z,1015.70
2018-08-18T02:04:52.505Z,1015.72
2018-08-18T02:05:52.491Z,1015.71
2018-08-18T02:06:52.527Z,1015.75
2018-08-18T02:07:52.545Z,1015.77
2018-08-18T02:08:52.573Z,1015.79
2018-08-18T02:09:52.565Z,1015.83
2018-08-18T02:10:52.571Z,1015.82
2018-08-18T02:11:52.577Z,1015.85
2018-08-18T02:12:52.609Z,1015.87
2018-08-18T02:13:52.602Z,1015.84
2018-08-18T02:14:52.633Z,1015.82
2018-08-18T02:15:52.760Z,1015.79
2018-08-18T02:16:52.621Z,1015.81
2018-08-18T02:17:52.710Z,1015.83
2018-08-18T02:18:52.649Z,1015.81
2018-08-18T02:19:52.704Z,1015.83
2018-08-18T02:20:52.674Z,1015.87
2018-08-18T02:21:52.705Z,1015.83
2018-08-18T02:22:52.759Z,1015.88
2018-08-18T02:23:52.737Z,1015.86
2018-08-18T02:24:52.751Z,1015.91
2018-08-18T02:25:52.755Z,1015.93
2018-08-18T02:26:52.781Z,1015.94
2018-08-18T02:27:52.785Z,1015.98
2018-08-18T02:28:52.821Z,1016.01
2018-08-18T02:29:52.778Z,1015.98
2018-08-18T02:30:52.812Z,1016.01
2018-08-18T02:31:52.823Z,1015.98
2018-08-18T02:32:52.840Z,1016.00
2018-08-18T02:33:52.869Z,1015.96
2018-08-18T02:34:52.873Z,1015.94
2018-08-18T02:35:52.886Z,1015.96
2018-08-18T02:36:52.879Z,1015.95
2018-08-18T02:37:52.915Z,1015.96
2018-08-18T02:38:52.975Z,1015.89
2018-08-18T02:39:52.996Z,1015.91
2018-08-18T02:40:52.917Z,1015.90
2018-08-18T02:41:52.967Z,1015.93
2018-08-18T02:42:52.941Z,1015.96
2018-08-18T02:43:52.941Z,1015.96
2018-08-18T02:44:53.050Z,1015.94
2018-08-18T02:45:52.992Z,1015.95
2018-08-18T02:46:52.977Z,1015.91
2018-08-18T02:47:53.051Z,1015.93
2018-08-18T02:48:53.028Z,1015.89
2018-08-18T02:49:53.043Z,1015.91
2018-08-18T02:50:53.101Z,1015.89
2018-08-18T02:51:53.060Z,1015.86
2018-08-18T02:52:53.088Z,1015.87
2018-08-18T02:53:53.134Z,1015.88
2018-08-18T02:54:53.119Z,1015.90
2018-08-18T02:55:53.115Z,1015.93
2018-08-18T02:56:53.139Z,1015.97
2018-08-18T02:57:53.130Z,1016.02
2018-08-18T02:58:53.185Z,1016.00
2018-08-18T02:59:53.170Z,1016.05
2018-08-18T03:00:53.236Z,1016.02
2018-08-18T03:01:53.180Z,1016.07
2018-08-18T03:02:53.201Z,1016.06
2018-08-18T03:03:53.228Z,1016.08
2018-08-18T03:04:53.264Z,1016.10
2018-08-18T03:05:53.229Z,1016.10
2018-08-18T03:06:53.244Z,1016.11
2018-08-18T03:07:53.315Z,1016.09
2018-08-18T03:08:59.896Z,1016.07
2018-08-18T03:09:53.327Z,1016.09
2018-08-18T03:10:53.295Z,1016.10
2018-08-18T03:11:53.284Z,1016.10
2018-08-18T03:12:53.306Z,1016.09
2018-08-18T03:13:53.338Z,1016.05
2018-08-18T03:14:53.407Z,1016.10
2018-08-18T03:15:53.338Z,1016.11
2018-08-18T03:16:53.350Z,1016.11
2018-08-18T03:17:53.382Z,1016.12
2018-08-18T03:18:53.426Z,1016.11
2018-08-18T03:19:53.392Z,1016.12
2018-08-18T03:20:53.398Z,1016.12
2018-08-18T03:21:53.429Z,1016.13
2018-08-18T03:22:53.429Z,1016.18
2018-08-18T03:23:53.484Z,1016.18
2018-08-18T03:24:53.488Z,1016.18
2018-08-18T03:25:53.495Z,1016.17
2018-08-18T03:26:53.477Z,1016.21
2018-08-18T03:27:53.469Z,1016.26
2018-08-18T03:28:53.535Z,1016.29
2018-08-18T03:29:53.584Z,1016.35
2018-08-18T03:30:53.520Z,1016.38
2018-08-18T03:31:53.534Z,1016.45
2018-08-18T03:32:53.539Z,1016.46
2018-08-18T03:33:53.567Z,1016.43
2018-08-18T03:34:53.594Z,1016.42
2018-08-18T03:35:53.626Z,1016.38
2018-08-18T03:36:53.613Z,1016.41
2018-08-18T03:37:53.640Z,1016.36
2018-08-18T03:38:53.611Z,1016.31
2018-08-18T03:39:53.624Z,1016.30
2018-08-18T03:40:53.669Z,1016.28
2018-08-18T03:41:53.663Z,1016.33
2018-08-18T03:42:53.659Z,1016.37
2018-08-18T03:43:53.668Z,1016.35
2018-08-18T03:44:53.706Z,1016.45
2018-08-18T03:45:53.747Z,1016.45
2018-08-18T03:46:53.779Z,1016.40
2018-08-18T03:47:53.723Z,1016.42
2018-08-18T03:48:53.739Z,1016.46
2018-08-18T03:49:53.749Z,1016.39
2018-08-18T03:50:53.766Z,1016.34
2018-08-18T03:51:53.835Z,1016.34
2018-08-18T03:52:53.778Z,1016.31
2018-08-18T03:53:53.808Z,1016.24
2018-08-18T03:54:53.805Z,1016.28
2018-08-18T03:55:53.801Z,1016.37
2018-08-18T03:56:53.874Z,1016.32
2018-08-18T03:57:53.833Z,1016.43
2018-08-18T03:58:53.873Z,1016.41
2018-08-18T03:59:53.876Z,1016.43
2018-08-18T04:00:53.872Z,1016.36
2018-08-18T04:01:54.000Z,1016.36
2018-08-18T04:02:53.966Z,1016.34
2018-08-18T04:03:53.936Z,1016.38
2018-08-18T04:04:53.940Z,1016.39
2018-08-18T04:05:53.928Z,1016.43
2018-08-18T04:06:53.962Z,1016.44
2018-08-18T04:07:54.012Z,1016.43
2018-08-18T04:08:54.032Z,1016.42
2018-08-18T04:09:54.003Z,1016.36
2018-08-18T04:10:53.985Z,1016.41
2018-08-18T04:11:54.007Z,1016.33
2018-08-18T04:12:54.018Z,1016.33
2018-08-18T04:13:54.087Z,1016.27
2018-08-18T04:14:54.046Z,1016.27
2018-08-18T04:15:54.049Z,1016.24
2018-08-18T04:16:54.079Z,1016.22
2018-08-18T04:17:54.098Z,1016.23
2018-08-18T04:18:54.175Z,1016.22
2018-08-18T04:19:54.092Z,1016.31
2018-08-18T04:20:54.132Z,1016.28
2018-08-18T04:21:54.120Z,1016.24
2018-08-18T04:22:54.148Z,1016.25
2018-08-18T04:23:54.161Z,1016.26
2018-08-18T04:24:54.180Z,1016.22
2018-08-18T04:25:54.227Z,1016.17
2018-08-18T04:26:54.195Z,1016.24
2018-08-18T04:27:54.472Z,1016.28
2018-08-18T04:28:54.203Z,1016.23
2018-08-18T04:29:54.215Z,1016.26
2018-08-18T04:30:54.239Z,1016.30
2018-08-18T04:31:54.311Z,1016.16
2018-08-18T04:32:54.262Z,1016.11
2018-08-18T04:33:54.274Z,1016.13
2018-08-18T04:34:54.390Z,1016.05
2018-08-18T04:35:54.589Z,1016.01
2018-08-18T04:36:54.505Z,1015.97
2018-08-18T04:37:54.310Z,1015.87
2018-08-18T04:38:54.321Z,1016.08
2018-08-18T04:39:54.339Z,1015.94
2018-08-18T04:40:54.355Z,1015.97
2018-08-18T04:41:54.404Z,1016.07
2018-08-18T04:42:54.410Z,1016.02
2018-08-18T04:43:54.445Z,1016.06
2018-08-18T04:44:54.461Z,1016.12
2018-08-18T04:45:54.535Z,1016.20
2018-08-18T04:46:54.443Z,1016.14
2018-08-18T04:47:54.483Z,1016.17
2018-08-18T04:48:54.422Z,1016.20
2018-08-18T04:49:54.536Z,1016.20
2018-08-18T04:50:54.462Z,1016.24
2018-08-18T04:51:54.643Z,1016.18
2018-08-18T04:52:54.498Z,1016.18
2018-08-18T04:53:54.514Z,1016.16
2018-08-18T04:54:54.545Z,1016.18
2018-08-18T04:55:54.535Z,1016.15
2018-08-18T04:56:54.636Z,1016.16
2018-08-18T04:57:54.625Z,1016.14
2018-08-18T04:58:54.542Z,1016.07
2018-08-18T04:59:54.586Z,1016.13
2018-08-18T05:00:54.571Z,1016.12
2018-08-18T05:01:54.592Z,1016.18
2018-08-18T05:02:54.656Z,1016.16
2018-08-18T05:03:54.668Z,1016.10
2018-08-18T05:04:54.691Z,1016.10
2018-08-18T05:05:54.629Z,1016.07
2018-08-18T05:06:54.756Z,1016.05
2018-08-18T05:07:54.805Z,1016.12
2018-08-18T05:08:54.673Z,1016.14
2018-08-18T05:09:54.805Z,1016.12
2018-08-18T05:10:54.701Z,1016.14
2018-08-18T05:11:54.695Z,1016.12
2018-08-18T05:12:55.388Z,1016.11
2018-08-18T05:13:54.747Z,1016.09
2018-08-18T05:14:54.756Z,1016.08
2018-08-18T05:15:54.771Z,1016.10
2018-08-18T05:16:54.749Z,1016.08
2018-08-18T05:17:54.876Z,1016.11
2018-08-18T05:18:54.856Z,1016.10
2018-08-18T05:19:54.822Z,1016.10
2018-08-18T05:20:54.811Z,1016.09
2018-08-18T05:21:54.836Z,1016.08
2018-08-18T05:22:54.845Z,1016.09
2018-08-18T05:23:54.887Z,1016.07
2018-08-18T05:24:54.900Z,1016.07
2018-08-18T05:25:54.907Z,1016.09
2018-08-18T05:26:54.893Z,1016.19
2018-08-18T05:27:54.900Z,1016.15
2018-08-18T05:28:54.882Z,1016.24
2018-08-18T05:29:54.904Z,1016.33
2018-08-18T05:30:54.956Z,1016.26
2018-08-18T05:31:54.970Z,1016.25
2018-08-18T05:32:54.950Z,1016.19
2018-08-18T05:33:54.954Z,1016.23
2018-08-18T05:34:54.989Z,1016.17
2018-08-18T05:35:55.009Z,1016.24
2018-08-18T05:36:55.000Z,1016.15
2018-08-18T05:37:55.013Z,1016.14
2018-08-18T05:38:55.019Z,1016.16
2018-08-18T05:39:55.041Z,1016.17
2018-08-18T05:40:55.121Z,1016.21
2018-08-18T05:41:55.056Z,1016.21
2018-08-18T05:42:55.060Z,1016.21
2018-08-18T05:43:55.083Z,1016.22
2018-08-18T05:44:55.102Z,1016.18
2018-08-18T05:45:55.149Z,1016.16
2018-08-18T05:46:55.171Z,1016.16
2018-08-18T05:47:55.136Z,1016.16
2018-08-18T05:48:55.187Z,1016.13
2018-08-18T05:49:55.138Z,1016.22
2018-08-18T05:50:55.183Z,1016.19
2018-08-18T05:51:55.239Z,1016.14
2018-08-18T05:52:55.202Z,1016.19
2018-08-18T05:53:55.194Z,1016.19
2018-08-18T05:54:55.224Z,1016.23
2018-08-18T05:55:55.237Z,1016.14
2018-08-18T05:56:55.292Z,1016.13
2018-08-18T05:57:55.259Z,1016.16
2018-08-18T05:58:55.284Z,1016.19
2018-08-18T05:59:55.275Z,1016.23
2018-08-18T06:00:55.309Z,1016.18
2018-08-18T06:01:55.336Z,1016.19
2018-08-18T06:02:55.356Z,1016.20
2018-08-18T06:03:55.317Z,1016.24
2018-08-18T06:04:55.354Z,1016.24
2018-08-18T06:05:55.364Z,1016.23
2018-08-18T06:06:55.374Z,1016.24
2018-08-18T06:07:55.401Z,1016.24
2018-08-18T06:08:55.363Z,1016.36
2018-08-18T06:09:55.398Z,1016.26
2018-08-18T06:10:55.406Z,1016.21
2018-08-18T06:11:55.435Z,1016.29
2018-08-18T06:12:55.454Z,1016.28
2018-08-18T06:13:55.435Z,1016.22
2018-08-18T06:14:55.448Z,1016.22
2018-08-18T06:15:55.460Z,1016.26
2018-08-18T06:16:55.462Z,1016.23
2018-08-18T06:17:55.539Z,1016.30
2018-08-18T06:18:55.501Z,1016.28
2018-08-18T06:19:55.520Z,1016.36
2018-08-18T06:20:55.532Z,1016.30
2018-08-18T06:21:55.534Z,1016.31
2018-08-18T06:22:55.610Z,1016.31
2018-08-18T06:23:55.575Z,1016.33
2018-08-18T06:24:55.577Z,1016.32
2018-08-18T06:25:55.587Z,1016.27
2018-08-18T06:26:55.611Z,1016.29
2018-08-18T06:27:55.642Z,1016.29
2018-08-18T06:28:55.632Z,1016.34
2018-08-18T06:29:55.669Z,1016.34
2018-08-18T06:30:55.660Z,1016.41
2018-08-18T06:31:55.659Z,1016.35
2018-08-18T06:32:55.654Z,1016.42
2018-08-18T06:33:55.681Z,1016.39
2018-08-18T06:34:55.877Z,1016.42
2018-08-18T06:35:55.722Z,1016.46
2018-08-18T06:36:55.736Z,1016.46
2018-08-18T06:37:55.733Z,1016.46
2018-08-18T06:38:55.768Z,1016.50
2018-08-18T06:39:55.790Z,1016.53
2018-08-18T06:40:55.867Z,1016.57
2018-08-18T06:41:55.892Z,1016.59
2018-08-18T06:42:55.798Z,1016.61
2018-08-18T06:43:55.864Z,1016.63
2018-08-18T06:44:55.829Z,1016.71
2018-08-18T06:45:55.879Z,1016.74
2018-08-18T06:46:55.876Z,1016.73
2018-08-18T06:47:55.856Z,1016.73
2018-08-18T06:48:55.854Z,1016.73
2018-08-18T06:49:55.904Z,1016.65
2018-08-18T06:50:55.922Z,1016.74
2018-08-18T06:51:55.931Z,1016.67
2018-08-18T06:52:55.935Z,1016.75
2018-08-18T06:53:55.930Z,1016.72
2018-08-18T06:54:56.089Z,1016.73
2018-08-18T06:55:56.008Z,1016.75
2018-08-18T06:56:55.999Z,1016.85
2018-08-18T06:57:55.987Z,1016.83
2018-08-18T06:58:55.994Z,1016.86
2018-08-18T06:59:56.007Z,1016.85
2018-08-18T07:00:56.072Z,1016.89
2018-08-18T07:01:56.085Z,1016.89
2018-08-18T07:02:56.041Z,1016.82
2018-08-18T07:03:56.053Z,1016.83
2018-08-18T07:04:56.070Z,1016.84
2018-08-18T07:05:56.155Z,1016.86
2018-08-18T07:06:56.130Z,1016.89
2018-08-18T07:07:56.114Z,1016.91
2018-08-18T07:08:56.125Z,1016.87
2018-08-18T07:09:56.150Z,1016.89
2018-08-18T07:10:56.156Z,1016.87
2018-08-18T07:11:56.196Z,1016.88
2018-08-18T07:12:56.177Z,1016.89
2018-08-18T07:13:56.262Z,1016.89
2018-08-18T07:14:56.200Z,1016.85
2018-08-18T07:15:56.210Z,1016.91
2018-08-18T07:16:56.257Z,1016.90
2018-08-18T07:17:56.276Z,1016.95
2018-08-18T07:18:56.266Z,1016.94
2018-08-18T07:19:56.277Z,1016.97
2018-08-18T07:20:56.275Z,1016.95
2018-08-18T07:21:56.297Z,1016.96
2018-08-18T07:22:56.321Z,1016.97
2018-08-18T07:23:56.321Z,1017.03
2018-08-18T07:24:56.316Z,1017.08
2018-08-18T07:25:56.355Z,1017.05
2018-08-18T07:26:56.366Z,1017.04
2018-08-18T07:27:56.460Z,1017.07
2018-08-18T07:28:56.592Z,1017.07
2018-08-18T07:29:56.415Z,1017.08
2018-08-18T07:30:56.415Z,1017.12
2018-08-18T07:31:56.460Z,1017.13
2018-08-18T07:32:56.480Z,1017.14
2018-08-18T07:33:56.456Z,1017.20
2018-08-18T07:34:56.474Z,1017.18
2018-08-18T07:35:56.603Z,1017.17
2018-08-18T07:36:56.554Z,1017.18
2018-08-18T07:37:56.732Z,1017.16
2018-08-18T07:38:56.540Z,1017.18
2018-08-18T07:39:56.518Z,1017.18
2018-08-18T07:40:56.554Z,1017.17
2018-08-18T07:41:56.836Z,1017.18
2018-08-18T07:42:56.596Z,1017.27
2018-08-18T07:43:56.708Z,1017.29
2018-08-18T07:44:56.605Z,1017.32
2018-08-18T07:45:56.633Z,1017.31
2018-08-18T07:46:56.726Z,1017.37
2018-08-18T07:47:57.094Z,1017.34
2018-08-18T07:48:56.680Z,1017.28
2018-08-18T07:49:56.677Z,1017.30
2018-08-18T07:50:56.677Z,1017.26
2018-08-18T07:51:56.691Z,1017.29
2018-08-18T07:52:56.710Z,1017.29
2018-08-18T07:53:56.734Z,1017.29
2018-08-18T07:54:56.751Z,1017.25
2018-08-18T07:55:56.853Z,1017.33
2018-08-18T07:56:56.996Z,1017.26
2018-08-18T07:57:56.812Z,1017.32
2018-08-18T07:58:57.052Z,1017.29
2018-08-18T07:59:56.792Z,1017.27
2018-08-18T08:00:56.813Z,1017.33
2018-08-18T08:01:56.819Z,1017.40
2018-08-18T08:02:56.811Z,1017.41
2018-08-18T08:03:56.909Z,1017.34
2018-08-18T08:04:56.856Z,1017.40
2018-08-18T08:05:56.867Z,1017.40
2018-08-18T08:06:56.870Z,1017.38
2018-08-18T08:07:56.877Z,1017.34
2018-08-18T08:08:56.964Z,1017.34
2018-08-18T08:09:56.958Z,1017.41
2018-08-18T08:10:56.923Z,1017.39
2018-08-18T08:11:56.958Z,1017.33
2018-08-18T08:12:57.025Z,1017.36
2018-08-18T08:13:56.977Z,1017.41
2018-08-18T08:14:57.008Z,1017.42
2018-08-18T08:15:57.000Z,1017.39
2018-08-18T08:16:57.003Z,1017.35
2018-08-18T08:17:57.075Z,1017.42
2018-08-18T08:18:57.027Z,1017.46
2018-08-18T08:19:57.093Z,1017.43
2018-08-18T08:20:57.083Z,1017.43
2018-08-18T08:21:57.082Z,1017.41
2018-08-18T08:22:57.080Z,1017.43
2018-08-18T08:23:57.106Z,1017.35
2018-08-18T08:24:57.145Z,1017.35
2018-08-18T08:25:57.127Z,1017.44
2018-08-18T08:26:57.170Z,1017.47
2018-08-18T08:27:57.160Z,1017.43
2018-08-18T08:28:57.175Z,1017.44
2018-08-18T08:29:57.175Z,1017.50
2018-08-18T08:30:57.192Z,1017.48
2018-08-18T08:31:57.254Z,1017.51
2018-08-18T08:32:57.222Z,1017.48
2018-08-18T08:33:57.235Z,1017.48
2018-08-18T08:34:57.253Z,1017.46
2018-08-18T08:35:57.275Z,1017.46
2018-08-18T08:36:57.296Z,1017.46
2018-08-18T08:37:57.296Z,1017.41
2018-08-18T08:38:57.355Z,1017.44
2018-08-18T08:39:57.383Z,1017.49
2018-08-18T08:40:57.324Z,1017.47
2018-08-18T08:41:57.321Z,1017.47
2018-08-18T08:42:57.389Z,1017.48
2018-08-18T08:43:57.352Z,1017.46
2018-08-18T08:44:57.410Z,1017.46
2018-08-18T08:45:57.407Z,1017.44
2018-08-18T08:46:57.419Z,1017.53
2018-08-18T08:47:57.428Z,1017.49
2018-08-18T08:48:57.484Z,1017.52
2018-08-18T08:49:57.456Z,1017.51
2018-08-18T08:50:57.446Z,1017.53
2018-08-18T08:51:57.456Z,1017.55
2018-08-18T08:52:57.505Z,1017.61
2018-08-18T08:53:57.566Z,1017.57
2018-08-18T08:54:57.528Z,1017.51
2018-08-18T08:55:57.542Z,1017.52
2018-08-18T08:56:57.551Z,1017.50
2018-08-18T08:57:57.638Z,1017.47
2018-08-18T08:58:57.641Z,1017.46
2018-08-18T08:59:57.601Z,1017.45
2018-08-18T09:00:57.604Z,1017.49
2018-08-18T09:01:57.623Z,1017.48
2018-08-18T09:02:57.649Z,1017.44
2018-08-18T09:03:57.693Z,1017.43
2018-08-18T09:04:57.658Z,1017.42
2018-08-18T09:05:57.750Z,1017.45
2018-08-18T09:06:57.694Z,1017.46
2018-08-18T09:07:57.708Z,1017.47
2018-08-18T09:08:57.762Z,1017.47
2018-08-18T09:09:57.742Z,1017.45
2018-08-18T09:10:57.742Z,1017.43
2018-08-18T09:11:57.804Z,1017.45
2018-08-18T09:12:57.788Z,1017.45
2018-08-18T09:13:58.055Z,1017.40
2018-08-18T09:14:57.865Z,1017.40
2018-08-18T09:15:57.834Z,1017.41
2018-08-18T09:16:57.957Z,1017.37
2018-08-18T09:17:57.923Z,1017.37
2018-08-18T09:18:57.878Z,1017.40
2018-08-18T09:19:57.901Z,1017.34
2018-08-18T09:20:58.057Z,1017.35
2018-08-18T09:21:57.931Z,1017.38
2018-08-18T09:22:57.932Z,1017.38
2018-08-18T09:23:57.971Z,1017.38
2018-08-18T09:24:57.932Z,1017.47
2018-08-18T09:25:58.137Z,1017.46
2018-08-18T09:26:58.001Z,1017.44
2018-08-18T09:27:57.994Z,1017.44
2018-08-18T09:28:58.021Z,1017.43
2018-08-18T09:29:58.015Z,1017.46
2018-08-18T09:30:58.198Z,1017.46
2018-08-18T09:31:58.222Z,1017.44
2018-08-18T09:32:58.180Z,1017.48
2018-08-18T09:33:58.114Z,1017.47
2018-08-18T09:34:58.107Z,1017.47
2018-08-18T09:35:58.223Z,1017.45
2018-08-18T09:36:58.123Z,1017.47
2018-08-18T09:37:58.133Z,1017.48
2018-08-18T09:38:58.186Z,1017.48
2018-08-18T09:39:58.242Z,1017.50
2018-08-18T09:40:58.315Z,1017.52
2018-08-18T09:41:58.207Z,1017.51
2018-08-18T09:42:58.218Z,1017.48
2018-08-18T09:43:58.269Z,1017.52
2018-08-18T09:44:58.300Z,1017.49
2018-08-18T09:45:58.268Z,1017.50
2018-08-18T09:46:58.295Z,1017.48
2018-08-18T09:47:58.282Z,1017.50
2018-08-18T09:48:58.386Z,1017.48
2018-08-18T09:49:58.496Z,1017.51
2018-08-18T09:50:58.376Z,1017.48
2018-08-18T09:51:58.324Z,1017.51
2018-08-18T09:52:58.376Z,1017.51
2018-08-18T09:53:58.401Z,1017.51
2018-08-18T09:54:58.404Z,1017.53
2018-08-18T09:55:58.452Z,1017.53
2018-08-18T09:56:58.427Z,1017.56
2018-08-18T09:57:58.457Z,1017.51
2018-08-18T09:58:58.474Z,1017.51
2018-08-18T09:59:58.475Z,1017.50
2018-08-18T10:00:58.508Z,1017.51
2018-08-18T10:01:58.538Z,1017.51
2018-08-18T10:02:58.495Z,1017.48
2018-08-18T10:03:58.517Z,1017.51
2018-08-18T10:04:58.553Z,1017.54
2018-08-18T10:05:58.547Z,1017.52
2018-08-18T10:06:58.639Z,1017.57
2018-08-18T10:07:58.571Z,1017.55
2018-08-18T10:08:58.588Z,1017.53
2018-08-18T10:09:58.595Z,1017.55
2018-08-18T10:10:58.615Z,1017.56
2018-08-18T10:11:58.735Z,1017.58
2018-08-18T10:12:58.671Z,1017.54
2018-08-18T10:13:58.650Z,1017.54
2018-08-18T10:14:58.678Z,1017.56
2018-08-18T10:15:58.704Z,1017.59
2018-08-18T10:16:58.712Z,1017.63
2018-08-18T10:17:58.760Z,1017.59
2018-08-18T10:18:58.721Z,1017.61
2018-08-18T10:19:58.758Z,1017.60
2018-08-18T10:20:58.784Z,1017.61
2018-08-18T10:21:58.770Z,1017.58
2018-08-18T10:22:58.828Z,1017.58
2018-08-18T10:23:58.823Z,1017.59
2018-08-18T10:24:58.832Z,1017.57
2018-08-18T10:25:58.857Z,1017.59
2018-08-18T10:26:58.857Z,1017.55
2018-08-18T10:27:58.930Z,1017.54
2018-08-18T10:28:58.931Z,1017.52
2018-08-18T10:29:58.905Z,1017.53
2018-08-18T10:30:58.915Z,1017.51
2018-08-18T10:31:58.949Z,1017.47
2018-08-18T10:32:58.931Z,1017.45
2018-08-18T10:33:58.974Z,1017.50
2018-08-18T10:34:58.982Z,1017.45
2018-08-18T10:35:58.992Z,1017.49
2018-08-18T10:36:59.008Z,1017.49
2018-08-18T10:37:59.017Z,1017.48
2018-08-18T10:38:59.094Z,1017.47
2018-08-18T10:39:59.060Z,1017.43
2018-08-18T10:40:59.081Z,1017.43
2018-08-18T10:41:59.114Z,1017.45
2018-08-18T10:42:59.096Z,1017.47
2018-08-18T10:43:59.176Z,1017.45
2018-08-18T10:44:59.274Z,1017.47
2018-08-18T10:45:59.157Z,1017.44
2018-08-18T10:46:59.166Z,1017.41
2018-08-18T10:47:59.183Z,1017.43
2018-08-18T10:48:59.472Z,1017.40
2018-08-18T10:49:59.188Z,1017.43
2018-08-18T10:50:59.363Z,1017.40
2018-08-18T10:51:59.304Z,1017.45
2018-08-18T10:52:59.384Z,1017.41
2018-08-18T10:53:59.302Z,1017.41
2018-08-18T10:54:59.307Z,1017.40
2018-08-18T10:55:59.304Z,1017.43
2018-08-18T10:56:59.346Z,1017.42
2018-08-18T10:57:59.327Z,1017.40
2018-08-18T10:58:59.345Z,1017.37
2018-08-18T10:59:59.403Z,1017.39
2018-08-18T11:00:59.444Z,1017.40
2018-08-18T11:01:59.623Z,1017.43
2018-08-18T11:02:59.406Z,1017.39
2018-08-18T11:03:59.703Z,1017.40
2018-08-18T11:04:59.445Z,1017.43
2018-08-18T11:05:59.437Z,1017.44
2018-08-18T11:06:59.523Z,1017.43
2018-08-18T11:07:59.505Z,1017.42
2018-08-18T11:08:59.561Z,1017.40
2018-08-18T11:09:59.508Z,1017.39
2018-08-18T11:10:59.595Z,1017.43
2018-08-18T11:11:59.622Z,1017.42
2018-08-18T11:12:59.548Z,1017.41
2018-08-18T11:13:59.589Z,1017.40
2018-08-18T11:14:59.578Z,1017.38
2018-08-18T11:15:59.653Z,1017.40
2018-08-18T11:16:59.679Z,1017.40
2018-08-18T11:17:59.624Z,1017.42
2018-08-18T11:18:59.671Z,1017.36
2018-08-18T11:19:59.662Z,1017.37
2018-08-18T11:20:59.699Z,1017.37
2018-08-18T11:21:59.713Z,1017.35
2018-08-18T11:22:59.713Z,1017.36
2018-08-18T11:23:59.722Z,1017.31
2018-08-18T11:24:59.733Z,1017.29
2018-08-18T11:25:59.769Z,1017.32
2018-08-18T11:26:59.816Z,1017.27
2018-08-18T11:27:59.794Z,1017.24
2018-08-18T11:28:59.801Z,1017.23
2018-08-18T11:29:59.814Z,1017.27
2018-08-18T11:30:59.841Z,1017.25
2018-08-18T11:31:59.829Z,1017.25
2018-08-18T11:32:59.914Z,1017.28
2018-08-18T11:33:59.859Z,1017.25
2018-08-18T11:34:59.899Z,1017.23
2018-08-18T11:35:59.922Z,1017.25
2018-08-18T11:36:59.905Z,1017.22
2018-08-18T11:37:59.908Z,1017.24
2018-08-18T11:39:00.001Z,1017.23
2018-08-18T11:39:59.949Z,1017.20
2018-08-18T11:40:59.962Z,1017.18
2018-08-18T11:41:59.968Z,1017.22
2018-08-18T11:43:00.004Z,1017.22
2018-08-18T11:44:00.030Z,1017.22
2018-08-18T11:45:00.057Z,1017.20
2018-08-18T11:46:00.055Z,1017.21
2018-08-18T11:47:00.053Z,1017.20
2018-08-18T11:48:00.083Z,1017.19
2018-08-18T11:49:00.104Z,1017.20
2018-08-18T11:50:00.155Z,1017.19
2018-08-18T11:51:00.092Z,1017.22
2018-08-18T11:52:00.098Z,1017.18
2018-08-18T11:53:00.131Z,1017.21
2018-08-18T11:54:00.178Z,1017.19
2018-08-18T11:55:00.239Z,1017.16
2018-08-18T11:56:00.148Z,1017.16
2018-08-18T11:57:00.157Z,1017.17
2018-08-18T11:58:00.192Z,1017.14
2018-08-18T11:59:00.217Z,1017.13
2018-08-18T12:00:00.217Z,1017.09
2018-08-18T12:01:00.371Z,1017.04
2018-08-18T12:02:00.283Z,1017.08
2018-08-18T12:03:00.281Z,1017.11
2018-08-18T12:04:00.290Z,1017.01
2018-08-18T12:05:00.299Z,1017.03
2018-08-18T12:06:00.379Z,1017.03